sensor_id;sensor_type;location;lat;lon;timestamp;temperature;humidity
25170;DHT22;13129;48.012;10.352;2023-03-14T04:31:35;6.80;99.90
25170;DHT22;13129;48.012;10.352;2023-03-14T04:34:00;6.80;99.90
25170;DHT22;13129;48.012;10.352;2023-03-14T04:36:26;6.80;99.90
25170;DHT22;13129;48.012;10.352;2023-03-14T04:38:52;6.80;99.90
25170;DHT22;13129;48.012;10.352;2023-03-14T04:41:17;6.80;99.90
25170;DHT22;13129;48.012;10.352;2023-03-14T04:43:43;6.80;99.90
25170;DHT22;13129;48.012;10.352;2023-03-14T04:46:09;6.80;99.90
25170;DHT22;13129;48.012;10.352;2023-03-14T04:48:34;6.80;99.90
25170;DHT22;13129;48.012;10.352;2023-03-14T04:51:00;6.80;99.90
25170;DHT22;13129;48.012;10.352;2023-03-14T04:53:26;6.80;99.90
25170;DHT22;13129;48.012;10.352;2023-03-14T04:55:53;6.80;99.90
25170;DHT22;13129;48.012;10.352;2023-03-14T04:58:22;6.80;99.90
25170;DHT22;13129;48.012;10.352;2023-03-14T05:00:49;6.80;99.90
25170;DHT22;13129;48.012;10.352;2023-03-14T05:03:16;6.80;99.90
25170;DHT22;13129;48.012;10.352;2023-03-14T05:05:42;6.70;99.90
25170;DHT22;13129;48.012;10.352;2023-03-14T05:08:08;6.70;99.90
25170;DHT22;13129;48.012;10.352;2023-03-14T05:10:34;6.70;99.90
25170;DHT22;13129;48.012;10.352;2023-03-14T05:12:59;6.70;99.90
25170;DHT22;13129;48.012;10.352;2023-03-14T05:15:25;6.70;99.90
25170;DHT22;13129;48.012;10.352;2023-03-14T05:17:51;6.70;99.90
25170;DHT22;13129;48.012;10.352;2023-03-14T05:20:17;6.70;99.90
25170;DHT22;13129;48.012;10.352;2023-03-14T05:22:42;6.70;99.90
25170;DHT22;13129;48.012;10.352;2023-03-14T05:25:08;6.70;99.90
25170;DHT22;13129;48.012;10.352;2023-03-14T05:27:34;6.70;99.90
25170;DHT22;13129;48.012;10.352;2023-03-14T05:30:01;6.60;99.90
25170;DHT22;13129;48.012;10.352;2023-03-14T05:32:27;6.70;99.90
25170;DHT22;13129;48.012;10.352;2023-03-14T05:34:52;6.60;99.90
25170;DHT22;13129;48.012;10.352;2023-03-14T05:37:18;6.60;99.90
25170;DHT22;13129;48.012;10.352;2023-03-14T05:39:44;6.70;99.90
25170;DHT22;13129;48.012;10.352;2023-03-14T05:42:09;6.60;99.90
25170;DHT22;13129;48.012;10.352;2023-03-14T05:44:35;6.60;99.90
25170;DHT22;13129;48.012;10.352;2023-03-14T05:47:01;6.60;99.90
25170;DHT22;13129;48.012;10.352;2023-03-14T05:49:26;6.60;99.90
25170;DHT22;13129;48.012;10.352;2023-03-14T05:51:52;6.60;99.90
25170;DHT22;13129;48.012;10.352;2023-03-14T05:54:18;6.60;99.90
25170;DHT22;13129;48.012;10.352;2023-03-14T05:56:43;6.70;99.90
25170;DHT22;13129;48.012;10.352;2023-03-14T05:59:09;6.60;99.90
25170;DHT22;13129;48.012;10.352;2023-03-14T06:01:35;6.70;99.90
25170;DHT22;13129;48.012;10.352;2023-03-14T06:04:01;6.70;99.90
25170;DHT22;13129;48.012;10.352;2023-03-14T06:06:26;6.80;99.90
25170;DHT22;13129;48.012;10.352;2023-03-14T06:08:52;6.90;99.90
25170;DHT22;13129;48.012;10.352;2023-03-14T06:11:18;6.90;99.90
25170;DHT22;13129;48.012;10.352;2023-03-14T06:13:43;6.80;99.90
25170;DHT22;13129;48.012;10.352;2023-03-14T06:16:09;6.90;99.90
25170;DHT22;13129;48.012;10.352;2023-03-14T06:18:35;6.90;99.90
25170;DHT22;13129;48.012;10.352;2023-03-14T06:21:00;6.90;99.90
25170;DHT22;13129;48.012;10.352;2023-03-14T06:23:26;7.00;99.90
25170;DHT22;13129;48.012;10.352;2023-03-14T06:25:52;7.00;99.90
25170;DHT22;13129;48.012;10.352;2023-03-14T06:28:18;7.00;99.90
25170;DHT22;13129;48.012;10.352;2023-03-14T06:30:43;7.10;99.90
25170;DHT22;13129;48.012;10.352;2023-03-14T06:33:09;7.10;99.90
25170;DHT22;13129;48.012;10.352;2023-03-14T06:35:35;7.10;99.90
25170;DHT22;13129;48.012;10.352;2023-03-14T06:38:01;7.10;99.90
25170;DHT22;13129;48.012;10.352;2023-03-14T06:40:26;7.10;99.90
25170;DHT22;13129;48.012;10.352;2023-03-14T06:42:52;7.20;99.90
25170;DHT22;13129;48.012;10.352;2023-03-14T06:45:18;7.20;99.90
25170;DHT22;13129;48.012;10.352;2023-03-14T06:47:43;7.20;99.90
25170;DHT22;13129;48.012;10.352;2023-03-14T06:50:10;7.20;99.90
25170;DHT22;13129;48.012;10.352;2023-03-14T06:52:36;7.20;99.90
25170;DHT22;13129;48.012;10.352;2023-03-14T06:55:01;7.30;99.90
25170;DHT22;13129;48.012;10.352;2023-03-14T06:57:27;7.30;99.90
25170;DHT22;13129;48.012;10.352;2023-03-14T06:59:53;7.30;99.90
25170;DHT22;13129;48.012;10.352;2023-03-14T07:02:18;7.30;99.90
25170;DHT22;13129;48.012;10.352;2023-03-14T07:04:44;7.30;99.90
25170;DHT22;13129;48.012;10.352;2023-03-14T07:07:10;7.40;99.90
25170;DHT22;13129;48.012;10.352;2023-03-14T07:09:35;7.40;99.90
25170;DHT22;13129;48.012;10.352;2023-03-14T07:12:02;7.40;99.90
25170;DHT22;13129;48.012;10.352;2023-03-14T07:14:29;7.50;99.90
25170;DHT22;13129;48.012;10.352;2023-03-14T07:16:55;7.50;99.90
25170;DHT22;13129;48.012;10.352;2023-03-14T07:19:20;7.60;99.90
25170;DHT22;13129;48.012;10.352;2023-03-14T07:21:46;7.60;99.90
25170;DHT22;13129;48.012;10.352;2023-03-14T07:24:12;7.60;99.90
25170;DHT22;13129;48.012;10.352;2023-03-14T07:26:38;7.70;99.90
25170;DHT22;13129;48.012;10.352;2023-03-14T07:29:04;7.70;99.90
25170;DHT22;13129;48.012;10.352;2023-03-14T07:31:29;7.70;99.90
25170;DHT22;13129;48.012;10.352;2023-03-14T07:33:55;7.70;99.90
25170;DHT22;13129;48.012;10.352;2023-03-14T07:36:21;7.80;99.90
25170;DHT22;13129;48.012;10.352;2023-03-14T07:38:47;7.80;99.90
25170;DHT22;13129;48.012;10.352;2023-03-14T07:41:13;7.90;99.90
25170;DHT22;13129;48.012;10.352;2023-03-14T07:43:39;7.90;99.90
25170;DHT22;13129;48.012;10.352;2023-03-14T07:46:04;7.90;99.90
25170;DHT22;13129;48.012;10.352;2023-03-14T07:48:30;8.00;99.90
25170;DHT22;13129;48.012;10.352;2023-03-14T07:50:56;8.10;99.90
25170;DHT22;13129;48.012;10.352;2023-03-14T07:53:23;8.20;99.90
25170;DHT22;13129;48.012;10.352;2023-03-14T07:55:50;8.20;99.90
25170;DHT22;13129;48.012;10.352;2023-03-14T07:58:17;8.40;99.90
25170;DHT22;13129;48.012;10.352;2023-03-14T08:00:43;8.60;99.90
25170;DHT22;13129;48.012;10.352;2023-03-14T08:03:09;8.80;99.90
25170;DHT22;13129;48.012;10.352;2023-03-14T08:05:38;9.10;99.90
25170;DHT22;13129;48.012;10.352;2023-03-14T08:08:04;9.30;99.90
25170;DHT22;13129;48.012;10.352;2023-03-14T08:10:30;9.30;99.90
25170;DHT22;13129;48.012;10.352;2023-03-14T08:12:58;9.40;99.90
25170;DHT22;13129;48.012;10.352;2023-03-14T08:15:24;9.60;99.90
25170;DHT22;13129;48.012;10.352;2023-03-14T08:17:50;9.90;99.90
25170;DHT22;13129;48.012;10.352;2023-03-14T08:20:25;10.20;99.90
25170;DHT22;13129;48.012;10.352;2023-03-14T08:22:52;10.40;99.90
25170;DHT22;13129;48.012;10.352;2023-03-14T08:25:17;10.50;99.90
25170;DHT22;13129;48.012;10.352;2023-03-14T08:27:46;10.70;99.90
25170;DHT22;13129;48.012;10.352;2023-03-14T08:30:15;11.00;99.90
25170;DHT22;13129;48.012;10.352;2023-03-14T08:32:44;11.20;99.90
25170;DHT22;13129;48.012;10.352;2023-03-14T08:35:11;11.20;99.90
25170;DHT22;13129;48.012;10.352;2023-03-14T08:37:36;11.30;99.90
25170;DHT22;13129;48.012;10.352;2023-03-14T08:40:04;11.40;99.90
25170;DHT22;13129;48.012;10.352;2023-03-14T08:42:32;11.60;99.90
25170;DHT22;13129;48.012;10.352;2023-03-14T08:44:58;11.90;99.90
25170;DHT22;13129;48.012;10.352;2023-03-14T08:47:24;12.70;99.90
25170;DHT22;13129;48.012;10.352;2023-03-14T08:49:49;13.70;99.90
25170;DHT22;13129;48.012;10.352;2023-03-14T08:52:15;14.80;99.90
25170;DHT22;13129;48.012;10.352;2023-03-14T08:54:45;16.50;99.90
25170;DHT22;13129;48.012;10.352;2023-03-14T08:57:10;18.10;99.90
25170;DHT22;13129;48.012;10.352;2023-03-14T08:59:36;19.60;98.20
25170;DHT22;13129;48.012;10.352;2023-03-14T09:02:02;19.90;93.10
25170;DHT22;13129;48.012;10.352;2023-03-14T09:04:32;20.10;91.00
25170;DHT22;13129;48.012;10.352;2023-03-14T09:06:58;20.00;89.70
25170;DHT22;13129;48.012;10.352;2023-03-14T09:09:25;20.40;87.60
25170;DHT22;13129;48.012;10.352;2023-03-14T09:11:52;21.00;84.60
25170;DHT22;13129;48.012;10.352;2023-03-14T09:14:17;21.00;79.60
25170;DHT22;13129;48.012;10.352;2023-03-14T09:16:43;20.40;79.30
25170;DHT22;13129;48.012;10.352;2023-03-14T09:19:09;19.40;78.40
25170;DHT22;13129;48.012;10.352;2023-03-14T09:21:34;18.40;80.80
25170;DHT22;13129;48.012;10.352;2023-03-14T09:24:00;17.80;82.80
25170;DHT22;13129;48.012;10.352;2023-03-14T09:26:25;16.90;83.40
25170;DHT22;13129;48.012;10.352;2023-03-14T09:28:51;16.30;85.90
25170;DHT22;13129;48.012;10.352;2023-03-14T09:31:17;15.70;87.60
25170;DHT22;13129;48.012;10.352;2023-03-14T09:33:43;15.40;89.80
25170;DHT22;13129;48.012;10.352;2023-03-14T09:36:10;15.60;89.50
25170;DHT22;13129;48.012;10.352;2023-03-14T09:38:36;16.00;88.90
25170;DHT22;13129;48.012;10.352;2023-03-14T09:41:03;16.60;88.30
25170;DHT22;13129;48.012;10.352;2023-03-14T09:43:36;17.70;86.10
25170;DHT22;13129;48.012;10.352;2023-03-14T09:46:02;18.70;82.20
25170;DHT22;13129;48.012;10.352;2023-03-14T09:48:31;19.70;78.80
25170;DHT22;13129;48.012;10.352;2023-03-14T09:50:59;20.50;76.20
25170;DHT22;13129;48.012;10.352;2023-03-14T09:53:36;20.30;75.20
25170;DHT22;13129;48.012;10.352;2023-03-14T09:56:03;19.90;73.00
25170;DHT22;13129;48.012;10.352;2023-03-14T09:58:30;20.20;74.30
25170;DHT22;13129;48.012;10.352;2023-03-14T10:00:56;21.00;72.40
25170;DHT22;13129;48.012;10.352;2023-03-14T10:03:26;21.60;68.80
25170;DHT22;13129;48.012;10.352;2023-03-14T10:05:55;22.20;67.60
25170;DHT22;13129;48.012;10.352;2023-03-14T10:08:21;22.60;66.30
25170;DHT22;13129;48.012;10.352;2023-03-14T10:10:46;23.00;65.00
25170;DHT22;13129;48.012;10.352;2023-03-14T10:13:16;23.00;63.70
25170;DHT22;13129;48.012;10.352;2023-03-14T10:15:59;22.80;64.10
25170;DHT22;13129;48.012;10.352;2023-03-14T10:18:26;22.90;64.30
25170;DHT22;13129;48.012;10.352;2023-03-14T10:21:20;23.50;61.50
25170;DHT22;13129;48.012;10.352;2023-03-14T10:23:46;22.70;59.70
25170;DHT22;13129;48.012;10.352;2023-03-14T10:26:17;22.40;61.20
25170;DHT22;13129;48.012;10.352;2023-03-14T10:31:10;23.40;59.90
25170;DHT22;13129;48.012;10.352;2023-03-14T10:33:37;23.80;58.00
25170;DHT22;13129;48.012;10.352;2023-03-14T10:36:22;23.50;57.20
25170;DHT22;13129;48.012;10.352;2023-03-14T10:38:49;22.80;57.80
25170;DHT22;13129;48.012;10.352;2023-03-14T10:41:25;21.80;59.20
25170;DHT22;13129;48.012;10.352;2023-03-14T10:43:58;20.90;60.60
25170;DHT22;13129;48.012;10.352;2023-03-14T10:46:26;19.80;62.00
25170;DHT22;13129;48.012;10.352;2023-03-14T10:48:53;18.60;64.40
25170;DHT22;13129;48.012;10.352;2023-03-14T10:51:27;17.70;67.10
25170;DHT22;13129;48.012;10.352;2023-03-14T10:54:13;17.30;69.50
25170;DHT22;13129;48.012;10.352;2023-03-14T10:56:39;17.00;70.20
25170;DHT22;13129;48.012;10.352;2023-03-14T10:59:14;16.60;71.20
25170;DHT22;13129;48.012;10.352;2023-03-14T11:01:58;16.30;73.20
25170;DHT22;13129;48.012;10.352;2023-03-14T11:07:38;15.70;75.80
25170;DHT22;13129;48.012;10.352;2023-03-14T11:22:20;14.40;80.10
25170;DHT22;13129;48.012;10.352;2023-03-14T11:27:28;14.10;83.10
25170;DHT22;13129;48.012;10.352;2023-03-14T11:30:19;14.10;83.70
25170;DHT22;13129;48.012;10.352;2023-03-14T11:36:07;14.30;83.10
25170;DHT22;13129;48.012;10.352;2023-03-14T11:38:50;14.00;83.30
25170;DHT22;13129;48.012;10.352;2023-03-14T11:41:30;13.80;84.20
25170;DHT22;13129;48.012;10.352;2023-03-14T11:43:59;13.50;85.30
25170;DHT22;13129;48.012;10.352;2023-03-14T11:46:38;13.50;85.90
25170;DHT22;13129;48.012;10.352;2023-03-14T11:49:15;13.50;86.20
25170;DHT22;13129;48.012;10.352;2023-03-14T11:51:46;13.40;86.60
25170;DHT22;13129;48.012;10.352;2023-03-14T11:54:22;13.40;87.50
25170;DHT22;13129;48.012;10.352;2023-03-14T11:56:57;13.20;87.60
25170;DHT22;13129;48.012;10.352;2023-03-14T12:10:49;12.70;90.60
25170;DHT22;13129;48.012;10.352;2023-03-14T12:13:17;12.80;91.10
25170;DHT22;13129;48.012;10.352;2023-03-14T12:15:59;12.70;91.40
25170;DHT22;13129;48.012;10.352;2023-03-14T12:18:35;12.60;92.10
25170;DHT22;13129;48.012;10.352;2023-03-14T12:21:10;12.30;92.60
25170;DHT22;13129;48.012;10.352;2023-03-14T12:23:44;12.20;92.90
25170;DHT22;13129;48.012;10.352;2023-03-14T12:26:15;11.90;93.40
25170;DHT22;13129;48.012;10.352;2023-03-14T12:29:09;11.70;93.80
25170;DHT22;13129;48.012;10.352;2023-03-14T12:31:40;11.40;94.50
25170;DHT22;13129;48.012;10.352;2023-03-14T12:44:44;10.20;98.00
25170;DHT22;13129;48.012;10.352;2023-03-14T12:49:42;9.50;99.50
25170;DHT22;13129;48.012;10.352;2023-03-14T12:52:36;9.40;99.90
25170;DHT22;13129;48.012;10.352;2023-03-14T12:55:19;9.20;99.90
25170;DHT22;13129;48.012;10.352;2023-03-14T12:57:55;9.00;99.90
25170;DHT22;13129;48.012;10.352;2023-03-14T13:00:24;9.00;99.90
25170;DHT22;13129;48.012;10.352;2023-03-14T13:03:02;8.90;99.90
25170;DHT22;13129;48.012;10.352;2023-03-14T13:05:55;8.90;99.90
25170;DHT22;13129;48.012;10.352;2023-03-14T13:10:59;8.50;99.90
25170;DHT22;13129;48.012;10.352;2023-03-14T13:13:26;8.40;99.90
25170;DHT22;13129;48.012;10.352;2023-03-14T13:15:57;8.30;99.90
25170;DHT22;13129;48.012;10.352;2023-03-14T13:18:41;8.10;99.90
25170;DHT22;13129;48.012;10.352;2023-03-14T13:23:37;8.00;99.90
25170;DHT22;13129;48.012;10.352;2023-03-14T13:26:03;8.10;99.90
25170;DHT22;13129;48.012;10.352;2023-03-14T13:28:31;8.10;99.90
25170;DHT22;13129;48.012;10.352;2023-03-14T13:31:04;8.00;99.90
25170;DHT22;13129;48.012;10.352;2023-03-14T13:33:30;7.90;99.90
25170;DHT22;13129;48.012;10.352;2023-03-14T13:35:58;7.90;99.90
25170;DHT22;13129;48.012;10.352;2023-03-14T13:38:26;7.90;99.90
25170;DHT22;13129;48.012;10.352;2023-03-14T13:40:58;7.90;99.90
25170;DHT22;13129;48.012;10.352;2023-03-14T13:43:31;7.90;99.90
25170;DHT22;13129;48.012;10.352;2023-03-14T13:46:02;7.80;99.90
25170;DHT22;13129;48.012;10.352;2023-03-14T13:48:30;7.80;99.90
25170;DHT22;13129;48.012;10.352;2023-03-14T13:53:25;7.60;99.90
25170;DHT22;13129;48.012;10.352;2023-03-14T13:55:51;7.50;99.90
25170;DHT22;13129;48.012;10.352;2023-03-14T13:58:26;7.30;99.90
25170;DHT22;13129;48.012;10.352;2023-03-14T14:01:15;7.20;99.90
25170;DHT22;13129;48.012;10.352;2023-03-14T14:03:43;7.10;99.90
25170;DHT22;13129;48.012;10.352;2023-03-14T14:06:37;7.10;99.90
25170;DHT22;13129;48.012;10.352;2023-03-14T14:09:16;7.20;99.90
25170;DHT22;13129;48.012;10.352;2023-03-14T14:11:53;7.20;99.90
25170;DHT22;13129;48.012;10.352;2023-03-14T14:14:50;7.40;99.90
25170;DHT22;13129;48.012;10.352;2023-03-14T14:17:28;7.50;99.90
25170;DHT22;13129;48.012;10.352;2023-03-14T14:19:55;7.50;99.90
25170;DHT22;13129;48.012;10.352;2023-03-14T14:22:22;7.50;99.90
25170;DHT22;13129;48.012;10.352;2023-03-14T14:24:47;7.50;99.90
25170;DHT22;13129;48.012;10.352;2023-03-14T14:27:24;7.40;99.90
25170;DHT22;13129;48.012;10.352;2023-03-14T14:32:48;7.60;99.90
25170;DHT22;13129;48.012;10.352;2023-03-14T14:37:50;7.80;99.90
25170;DHT22;13129;48.012;10.352;2023-03-14T14:40:21;8.00;99.90
25170;DHT22;13129;48.012;10.352;2023-03-14T14:42:48;8.10;99.90
25170;DHT22;13129;48.012;10.352;2023-03-14T14:45:19;8.10;99.90
25170;DHT22;13129;48.012;10.352;2023-03-14T14:48:06;8.10;99.90
25170;DHT22;13129;48.012;10.352;2023-03-14T14:50:48;8.10;99.90
25170;DHT22;13129;48.012;10.352;2023-03-14T14:53:35;8.10;99.90
25170;DHT22;13129;48.012;10.352;2023-03-14T14:56:16;8.10;99.90
25170;DHT22;13129;48.012;10.352;2023-03-14T14:58:45;8.10;99.90
25170;DHT22;13129;48.012;10.352;2023-03-14T15:01:15;8.10;99.90
25170;DHT22;13129;48.012;10.352;2023-03-14T15:03:46;8.00;99.90
25170;DHT22;13129;48.012;10.352;2023-03-14T15:06:14;8.00;99.90
25170;DHT22;13129;48.012;10.352;2023-03-14T15:08:40;8.00;99.90
25170;DHT22;13129;48.012;10.352;2023-03-14T15:11:08;8.00;99.90
25170;DHT22;13129;48.012;10.352;2023-03-14T15:13:34;8.00;99.90
25170;DHT22;13129;48.012;10.352;2023-03-14T15:16:00;8.10;99.90
25170;DHT22;13129;48.012;10.352;2023-03-14T15:18:28;8.20;99.90
25170;DHT22;13129;48.012;10.352;2023-03-14T15:20:55;8.20;99.90
25170;DHT22;13129;48.012;10.352;2023-03-14T15:23:22;8.20;99.90
25170;DHT22;13129;48.012;10.352;2023-03-14T15:25:48;8.20;99.90
25170;DHT22;13129;48.012;10.352;2023-03-14T15:28:17;8.10;99.90
25170;DHT22;13129;48.012;10.352;2023-03-14T15:30:43;8.10;99.90
25170;DHT22;13129;48.012;10.352;2023-03-14T15:33:09;7.90;99.90
25170;DHT22;13129;48.012;10.352;2023-03-14T15:35:41;7.80;99.90
25170;DHT22;13129;48.012;10.352;2023-03-14T15:38:12;7.70;99.90
25170;DHT22;13129;48.012;10.352;2023-03-14T15:40:38;7.60;99.90
25170;DHT22;13129;48.012;10.352;2023-03-14T15:43:04;7.50;99.90
25170;DHT22;13129;48.012;10.352;2023-03-14T15:45:30;7.30;99.90
25170;DHT22;13129;48.012;10.352;2023-03-14T15:47:55;7.20;99.90
25170;DHT22;13129;48.012;10.352;2023-03-14T15:50:21;7.20;99.90
25170;DHT22;13129;48.012;10.352;2023-03-14T15:52:47;7.10;99.90
25170;DHT22;13129;48.012;10.352;2023-03-14T15:55:13;7.10;99.90
25170;DHT22;13129;48.012;10.352;2023-03-14T15:57:41;7.00;99.90
25170;DHT22;13129;48.012;10.352;2023-03-14T16:00:14;6.90;99.90
25170;DHT22;13129;48.012;10.352;2023-03-14T16:02:41;6.80;99.90
25170;DHT22;13129;48.012;10.352;2023-03-14T16:05:19;6.70;99.90
25170;DHT22;13129;48.012;10.352;2023-03-14T16:07:46;6.60;99.90
25170;DHT22;13129;48.012;10.352;2023-03-14T16:10:12;6.60;99.90
25170;DHT22;13129;48.012;10.352;2023-03-14T16:12:39;6.60;99.90
25170;DHT22;13129;48.012;10.352;2023-03-14T16:15:05;6.50;99.90
25170;DHT22;13129;48.012;10.352;2023-03-14T16:17:32;6.50;99.90
25170;DHT22;13129;48.012;10.352;2023-03-14T16:19:57;6.50;99.90
25170;DHT22;13129;48.012;10.352;2023-03-14T16:22:23;6.50;99.90
25170;DHT22;13129;48.012;10.352;2023-03-14T16:24:50;6.50;99.90
25170;DHT22;13129;48.012;10.352;2023-03-14T16:27:15;6.50;99.90
25170;DHT22;13129;48.012;10.352;2023-03-14T16:29:42;6.40;99.90
25170;DHT22;13129;48.012;10.352;2023-03-14T16:32:08;6.30;99.90
25170;DHT22;13129;48.012;10.352;2023-03-14T16:34:37;6.30;99.90
25170;DHT22;13129;48.012;10.352;2023-03-14T16:37:04;6.30;99.90
25170;DHT22;13129;48.012;10.352;2023-03-14T16:39:30;6.30;99.90
25170;DHT22;13129;48.012;10.352;2023-03-14T16:41:57;6.30;99.90
25170;DHT22;13129;48.012;10.352;2023-03-14T16:44:23;6.30;99.90
25170;DHT22;13129;48.012;10.352;2023-03-14T16:46:49;6.30;99.90
25170;DHT22;13129;48.012;10.352;2023-03-14T16:49:15;6.30;99.90
25170;DHT22;13129;48.012;10.352;2023-03-14T16:51:40;6.30;99.90
25170;DHT22;13129;48.012;10.352;2023-03-14T16:54:10;6.30;99.90
25170;DHT22;13129;48.012;10.352;2023-03-14T16:56:36;6.30;99.90
25170;DHT22;13129;48.012;10.352;2023-03-14T16:59:02;6.30;99.90
25170;DHT22;13129;48.012;10.352;2023-03-14T17:01:27;6.20;99.90
25170;DHT22;13129;48.012;10.352;2023-03-14T17:03:53;6.10;99.90
25170;DHT22;13129;48.012;10.352;2023-03-14T17:06:21;6.00;99.90
25170;DHT22;13129;48.012;10.352;2023-03-14T17:08:51;6.00;99.90
25170;DHT22;13129;48.012;10.352;2023-03-14T17:11:17;5.90;99.90
25170;DHT22;13129;48.012;10.352;2023-03-14T17:13:43;5.70;99.90
25170;DHT22;13129;48.012;10.352;2023-03-14T17:16:11;5.70;99.90
25170;DHT22;13129;48.012;10.352;2023-03-14T17:18:37;5.60;99.90
25170;DHT22;13129;48.012;10.352;2023-03-14T17:21:04;5.50;99.90
25170;DHT22;13129;48.012;10.352;2023-03-14T17:23:31;5.50;99.90
25170;DHT22;13129;48.012;10.352;2023-03-14T17:25:57;5.40;99.90
25170;DHT22;13129;48.012;10.352;2023-03-14T17:28:25;5.40;99.90
25170;DHT22;13129;48.012;10.352;2023-03-14T17:31:00;5.40;99.90
25170;DHT22;13129;48.012;10.352;2023-03-14T17:33:26;5.30;99.90
25170;DHT22;13129;48.012;10.352;2023-03-14T17:35:52;5.30;99.90
25170;DHT22;13129;48.012;10.352;2023-03-14T17:38:18;5.20;99.90
25170;DHT22;13129;48.012;10.352;2023-03-14T17:40:48;5.20;99.90
25170;DHT22;13129;48.012;10.352;2023-03-14T17:43:14;5.20;99.90
25170;DHT22;13129;48.012;10.352;2023-03-14T17:45:39;5.10;99.90
25170;DHT22;13129;48.012;10.352;2023-03-14T17:48:08;5.10;99.90
25170;DHT22;13129;48.012;10.352;2023-03-14T17:50:34;5.00;99.90
25170;DHT22;13129;48.012;10.352;2023-03-14T17:52:59;5.00;99.90
25170;DHT22;13129;48.012;10.352;2023-03-14T17:55:25;5.00;99.90
25170;DHT22;13129;48.012;10.352;2023-03-14T17:57:50;5.00;99.90
25170;DHT22;13129;48.012;10.352;2023-03-14T18:00:16;5.00;99.90
25170;DHT22;13129;48.012;10.352;2023-03-14T18:02:42;5.00;99.90
25170;DHT22;13129;48.012;10.352;2023-03-14T18:05:08;5.00;99.90
25170;DHT22;13129;48.012;10.352;2023-03-14T18:07:34;5.00;99.90
25170;DHT22;13129;48.012;10.352;2023-03-14T18:10:01;5.00;99.90
25170;DHT22;13129;48.012;10.352;2023-03-14T18:12:26;5.00;99.90
25170;DHT22;13129;48.012;10.352;2023-03-14T18:14:53;5.00;99.90
25170;DHT22;13129;48.012;10.352;2023-03-14T18:17:19;5.00;99.90
25170;DHT22;13129;48.012;10.352;2023-03-14T18:19:44;5.10;99.90
25170;DHT22;13129;48.012;10.352;2023-03-14T18:22:10;5.00;99.90
25170;DHT22;13129;48.012;10.352;2023-03-14T18:24:37;5.00;99.90
25170;DHT22;13129;48.012;10.352;2023-03-14T18:27:03;5.00;99.90
25170;DHT22;13129;48.012;10.352;2023-03-14T18:29:29;5.00;99.90
25170;DHT22;13129;48.012;10.352;2023-03-14T18:31:55;4.90;99.90
25170;DHT22;13129;48.012;10.352;2023-03-14T18:34:23;4.80;99.90
25170;DHT22;13129;48.012;10.352;2023-03-14T18:36:48;4.80;99.90
25170;DHT22;13129;48.012;10.352;2023-03-14T18:39:14;4.70;99.90
25170;DHT22;13129;48.012;10.352;2023-03-14T18:41:40;4.60;99.90
25170;DHT22;13129;48.012;10.352;2023-03-14T18:44:06;4.60;99.90
25170;DHT22;13129;48.012;10.352;2023-03-14T18:46:31;4.50;99.90
25170;DHT22;13129;48.012;10.352;2023-03-14T18:48:57;4.50;99.90
25170;DHT22;13129;48.012;10.352;2023-03-14T18:51:28;4.40;99.90
25170;DHT22;13129;48.012;10.352;2023-03-14T18:53:55;4.40;99.90
25170;DHT22;13129;48.012;10.352;2023-03-14T18:56:23;4.40;99.90
25170;DHT22;13129;48.012;10.352;2023-03-14T18:58:49;4.40;99.90
25170;DHT22;13129;48.012;10.352;2023-03-14T19:01:15;4.40;99.90
25170;DHT22;13129;48.012;10.352;2023-03-14T19:03:42;4.30;99.90
25170;DHT22;13129;48.012;10.352;2023-03-14T19:06:09;4.30;99.90
25170;DHT22;13129;48.012;10.352;2023-03-14T19:08:36;4.40;99.90
25170;DHT22;13129;48.012;10.352;2023-03-14T19:11:04;4.40;99.90
25170;DHT22;13129;48.012;10.352;2023-03-14T19:13:32;4.40;99.90
25170;DHT22;13129;48.012;10.352;2023-03-14T19:16:00;4.50;99.90
25170;DHT22;13129;48.012;10.352;2023-03-14T19:18:27;4.50;99.90
25170;DHT22;13129;48.012;10.352;2023-03-14T19:20:56;4.60;99.90
25170;DHT22;13129;48.012;10.352;2023-03-14T19:23:23;4.60;99.90
25170;DHT22;13129;48.012;10.352;2023-03-14T19:25:50;4.60;99.90
25170;DHT22;13129;48.012;10.352;2023-03-14T19:28:16;4.60;99.90
25170;DHT22;13129;48.012;10.352;2023-03-14T19:30:41;4.60;99.90
25170;DHT22;13129;48.012;10.352;2023-03-14T19:33:10;4.60;99.90
25170;DHT22;13129;48.012;10.352;2023-03-14T19:35:35;4.10;99.90
25170;DHT22;13129;48.012;10.352;2023-03-14T19:38:01;3.60;99.90
25170;DHT22;13129;48.012;10.352;2023-03-14T19:40:26;3.10;99.90
25170;DHT22;13129;48.012;10.352;2023-03-14T19:42:52;2.90;99.90
25170;DHT22;13129;48.012;10.352;2023-03-14T19:45:18;2.80;99.90
25170;DHT22;13129;48.012;10.352;2023-03-14T19:47:43;2.80;99.90
25170;DHT22;13129;48.012;10.352;2023-03-14T19:50:10;2.90;99.90
25170;DHT22;13129;48.012;10.352;2023-03-14T19:52:36;2.90;99.90
25170;DHT22;13129;48.012;10.352;2023-03-14T19:55:04;2.90;99.90
25170;DHT22;13129;48.012;10.352;2023-03-14T19:57:29;3.00;99.90
25170;DHT22;13129;48.012;10.352;2023-03-14T19:59:55;3.10;99.90
25170;DHT22;13129;48.012;10.352;2023-03-14T20:02:22;3.10;99.90
25170;DHT22;13129;48.012;10.352;2023-03-14T20:04:48;3.20;99.90
25170;DHT22;13129;48.012;10.352;2023-03-14T20:07:14;3.20;99.90
25170;DHT22;13129;48.012;10.352;2023-03-14T20:09:40;3.20;99.90
25170;DHT22;13129;48.012;10.352;2023-03-14T20:12:07;3.10;99.90
25170;DHT22;13129;48.012;10.352;2023-03-14T20:14:33;2.90;99.90
25170;DHT22;13129;48.012;10.352;2023-03-14T20:16:59;2.90;99.90
25170;DHT22;13129;48.012;10.352;2023-03-14T20:19:25;2.90;99.90
25170;DHT22;13129;48.012;10.352;2023-03-14T20:21:51;2.80;99.90
25170;DHT22;13129;48.012;10.352;2023-03-14T20:24:17;2.70;99.90
25170;DHT22;13129;48.012;10.352;2023-03-14T20:26:43;2.80;99.90
25170;DHT22;13129;48.012;10.352;2023-03-14T20:29:09;2.70;99.90
25170;DHT22;13129;48.012;10.352;2023-03-14T20:31:35;2.70;99.90
25170;DHT22;13129;48.012;10.352;2023-03-14T20:34:03;2.70;99.90
25170;DHT22;13129;48.012;10.352;2023-03-14T20:36:29;2.80;99.90
25170;DHT22;13129;48.012;10.352;2023-03-14T20:38:55;2.90;99.90
25170;DHT22;13129;48.012;10.352;2023-03-14T20:41:21;2.90;99.90
25170;DHT22;13129;48.012;10.352;2023-03-14T20:43:46;2.90;99.90
25170;DHT22;13129;48.012;10.352;2023-03-14T20:46:12;2.90;99.90
25170;DHT22;13129;48.012;10.352;2023-03-14T20:48:41;2.90;99.90
25170;DHT22;13129;48.012;10.352;2023-03-14T20:51:08;2.90;99.90
25170;DHT22;13129;48.012;10.352;2023-03-14T20:53:35;2.90;99.90
25170;DHT22;13129;48.012;10.352;2023-03-14T20:56:01;2.90;99.90
25170;DHT22;13129;48.012;10.352;2023-03-14T20:58:27;2.80;99.90
25170;DHT22;13129;48.012;10.352;2023-03-14T21:00:54;2.80;99.90
25170;DHT22;13129;48.012;10.352;2023-03-14T21:03:20;2.80;99.90
25170;DHT22;13129;48.012;10.352;2023-03-14T21:05:48;2.80;99.90